Time;durP1;ratioP1;P1;durP2;ratioP2;P2;SDS_P1;SDS_P2;PMS_P1;PMS_P2;Temp;Humidity;BMP_temperature;BMP_pressure;BME280_temperature;BME280_humidity;BME280_pressure;Samples;Min_cycle;Max_cycle;Signal;HPM_P1;HPM_P2
2022/03/21 00:01:02;;;;;;;23.45;10.77;;;;;;;4.78;44.44;101791.34;5063840;28;20028;-72
2022/03/21 00:03:29;;;;;;;21.27;10.70;;;;;;;4.79;43.88;101781.78;5063309;28;20036;-73
2022/03/21 00:05:55;;;;;;;21.73;10.00;;;;;;;4.75;43.43;101785.34;5063738;28;20036;-72
2022/03/21 00:08:22;;;;;;;20.38;10.77;;;;;;;4.77;42.92;101797.38;5061128;28;20044;-74
2022/03/21 00:10:49;;;;;;;20.67;10.38;;;;;;;4.72;44.25;101790.59;5063292;28;20495;-71
2022/03/21 00:13:14;;;;;;;19.20;9.85;;;;;;;4.73;43.01;101787.94;5063764;28;20039;-72
2022/03/21 00:15:40;;;;;;;22.20;11.05;;;;;;;4.73;43.17;101787.94;5045135;28;20056;-73
2022/03/21 00:18:05;;;;;;;22.70;11.48;;;;;;;4.70;42.83;101782.78;5061759;28;20047;-74
2022/03/21 00:20:32;;;;;;;20.73;11.05;;;;;;;4.72;42.72;101785.38;5062948;28;20056;-74
2022/03/21 00:22:58;;;;;;;22.88;10.50;;;;;;;4.67;43.02;101782.00;5062763;28;21242;-73
2022/03/21 00:25:23;;;;;;;23.13;11.27;;;;;;;4.71;43.02;101786.25;5044712;28;20123;-72
2022/03/21 00:27:49;;;;;;;22.30;10.82;;;;;;;4.68;43.20;101783.72;5061561;28;20397;-70
2022/03/21 00:30:16;;;;;;;26.85;11.35;;;;;;;4.67;43.31;101782.00;5062625;28;20028;-69
2022/03/21 00:32:42;;;;;;;17.77;10.27;;;;;;;4.58;43.64;101783.88;5068677;28;20037;-70
2022/03/21 00:35:10;;;;;;;19.67;10.80;;;;;;;4.54;44.91;101771.84;5069338;28;20078;-72
2022/03/21 00:37:37;;;;;;;21.85;10.00;;;;;;;4.50;45.30;101777.97;5051552;28;20016;-70
2022/03/21 00:40:05;;;;;;;19.30;9.50;;;;;;;4.47;44.81;101772.81;5069494;28;20024;-72
2022/03/21 00:42:34;;;;;;;20.40;10.13;;;;;;;4.45;44.75;101781.53;5068664;28;20132;-71
2022/03/21 00:45:00;;;;;;;24.98;11.25;;;;;;;4.41;44.95;101772.91;5068708;28;20142;-70
2022/03/21 00:47:25;;;;;;;21.60;10.30;;;;;;;4.41;45.63;101783.31;5069120;28;20029;-71
2022/03/21 00:49:52;;;;;;;19.70;10.15;;;;;;;4.41;45.02;101770.31;5069225;28;20039;-71
2022/03/21 00:52:18;;;;;;;17.13;9.90;;;;;;;4.40;45.25;101778.16;5069161;28;20055;-72
2022/03/21 00:54:43;;;;;;;21.77;10.90;;;;;;;4.41;45.10;101774.66;5069434;28;20055;-72
2022/03/21 00:57:08;;;;;;;19.20;10.18;;;;;;;4.44;45.27;101774.63;5069111;28;20083;-71
2022/03/21 00:59:34;;;;;;;21.75;10.02;;;;;;;4.45;45.73;101778.91;5068725;28;20410;-72
2022/03/21 01:01:59;;;;;;;26.70;11.32;;;;;;;4.43;45.44;101775.50;5068125;28;20036;-69
2022/03/21 01:04:24;;;;;;;21.23;10.57;;;;;;;4.37;45.12;101768.66;5068337;28;20036;-70
2022/03/21 01:06:50;;;;;;;19.63;9.98;;;;;;;4.34;45.17;101766.16;5069041;28;20044;-71
2022/03/21 01:09:17;;;;;;;21.98;10.95;;;;;;;4.29;45.45;101765.34;5067453;28;20494;-72
2022/03/21 01:11:43;;;;;;;19.50;10.75;;;;;;;4.29;44.65;101774.00;5068002;28;20028;-73
2022/03/21 01:14:09;;;;;;;21.45;10.40;;;;;;;4.25;44.80;101756.75;5066890;28;20056;-72
2022/03/21 01:16:35;;;;;;;25.88;9.80;;;;;;;4.23;45.53;101768.06;5065995;28;20114;-71
2022/03/21 01:19:00;;;;;;;25.05;10.98;;;;;;;4.16;45.09;101756.94;5068561;28;20385;-72
2022/03/21 01:21:25;;;;;;;18.15;9.75;;;;;;;4.10;45.57;101759.63;5064886;28;20062;-73
2022/03/21 01:23:51;;;;;;;19.38;9.82;;;;;;;4.01;45.71;101757.19;5063535;28;20269;-73
2022/03/21 01:26:16;;;;;;;18.30;9.15;;;;;;;4.05;46.31;101764.03;5068043;28;20105;-72
2022/03/21 01:28:42;;;;;;;21.08;9.68;;;;;;;4.02;45.74;101761.47;5068130;28;20048;-73
2022/03/21 01:31:08;;;;;;;22.80;10.70;;;;;;;4.01;45.85;101764.97;5068181;28;20202;-72
2022/03/21 01:33:35;;;;;;;25.55;10.50;;;;;;;4.06;45.20;101763.16;5068157;28;20123;-72
2022/03/21 01:36:00;;;;;;;20.92;10.10;;;;;;;4.09;46.19;101765.69;5064753;28;20473;-71
2022/03/21 01:38:26;;;;;;;24.23;10.95;;;;;;;4.12;45.41;101763.91;5067897;28;20029;-71
2022/03/21 01:40:51;;;;;;;19.15;10.20;;;;;;;4.06;46.03;101763.16;5067495;28;20029;-71
2022/03/21 01:43:16;;;;;;;21.27;9.77;;;;;;;4.05;45.91;101767.47;5068224;28;20056;-72
2022/03/21 01:45:42;;;;;;;24.65;10.18;;;;;;;3.95;45.86;101768.50;5067762;28;20052;-71
2022/03/21 01:48:07;;;;;;;20.17;10.10;;;;;;;3.97;45.10;101764.16;5068132;28;20048;-70
2022/03/21 01:50:33;;;;;;;23.70;10.43;;;;;;;4.01;45.03;101755.44;5050083;28;20042;-72
2022/03/21 01:55:43;;;;;;;21.95;10.65;;;;;;;3.87;45.34;101765.19;5068343;28;20097;-72
2022/03/21 01:58:10;;;;;;;22.02;9.35;;;;;;;3.76;46.19;101760.16;5068163;28;20036;-72
2022/03/21 02:00:37;;;;;;;25.63;10.90;;;;;;;3.71;46.04;101759.38;5067392;28;20043;-72
2022/03/21 02:03:03;;;;;;;21.23;10.30;;;;;;;3.66;45.84;101768.09;5067457;28;20512;-71
2022/03/21 02:05:28;;;;;;;25.85;10.20;;;;;;;3.58;46.97;101766.44;5067301;28;20559;-72
2022/03/21 02:07:54;;;;;;;21.17;9.68;;;;;;;3.49;47.61;101758.81;5067018;28;20119;-71
2022/03/21 02:10:19;;;;;;;23.75;10.40;;;;;;;3.49;47.37;101758.81;5067532;28;20021;-70
2022/03/21 02:12:45;;;;;;;23.60;11.30;;;;;;;3.54;47.63;101762.19;5068103;28;20028;-72
2022/03/21 02:15:11;;;;;;;19.70;10.20;;;;;;;3.57;46.57;101759.56;5067012;28;20116;-72
2022/03/21 02:17:41;;;;;;;23.35;11.50;;;;;;;3.65;46.34;101751.66;5067826;28;20428;-70
2022/03/21 02:20:07;;;;;;;21.25;10.05;;;;;;;3.63;46.83;101750.81;5069025;28;20498;-71
2022/03/21 02:23:08;;;;;;;23.77;10.63;;;;;;;3.59;46.54;101743.97;5074507;28;20107;-72
2022/03/21 02:25:34;;;;;;;21.25;10.68;;;;;;;3.59;46.67;101751.75;5066950;28;20042;-72
2022/03/21 02:28:02;;;;;;;20.52;9.77;;;;;;;3.57;46.49;101749.19;5071667;28;20420;-72
2022/03/21 02:30:29;;;;;;;20.63;9.60;;;;;;;3.55;46.94;101752.66;5070498;28;20086;-71
2022/03/21 02:32:55;;;;;;;21.73;10.00;;;;;;;3.54;46.62;101754.41;5071211;28;20052;-73
2022/03/21 02:35:21;;;;;;;19.95;9.85;;;;;;;3.46;46.85;101755.41;5070865;28;20543;-70
2022/03/21 02:37:48;;;;;;;22.23;10.63;;;;;;;3.47;46.75;101760.56;5070735;28;20040;-70
2022/03/21 02:40:15;;;;;;;23.70;10.27;;;;;;;3.40;47.10;101752.00;5071154;28;20040;-71
2022/03/21 02:42:40;;;;;;;19.90;9.60;;;;;;;3.38;47.80;101746.00;5050755;28;20576;-72
2022/03/21 02:45:06;;;;;;;19.45;9.70;;;;;;;3.33;47.54;101745.19;5070514;28;20032;-69
2022/03/21 02:47:31;;;;;;;22.13;10.82;;;;;;;3.28;47.83;101740.94;5071442;28;20025;-69
2022/03/21 02:49:59;;;;;;;21.80;9.70;;;;;;;3.33;47.27;101752.97;5070841;28;20025;-73
2022/03/21 02:52:27;;;;;;;20.67;9.88;;;;;;;3.27;47.45;101744.44;5068799;28;20452;-72
2022/03/21 02:54:53;;;;;;;22.98;10.27;;;;;;;3.31;46.84;101739.16;5070934;28;20468;-73
2022/03/21 02:57:18;;;;;;;21.75;10.07;;;;;;;3.32;47.91;101738.28;5070995;28;20036;-73
2022/03/21 02:59:43;;;;;;;21.13;9.90;;;;;;;3.33;46.57;101740.00;5070379;28;20032;-72
2022/03/21 03:02:09;;;;;;;21.38;9.98;;;;;;;3.30;47.27;101741.78;5070763;28;20390;-72
2022/03/21 03:04:34;;;;;;;21.17;11.02;;;;;;;3.23;47.64;101745.34;5070387;28;20028;-72
2022/03/21 03:07:00;;;;;;;21.63;9.98;;;;;;;3.30;46.69;101740.06;5070617;28;20037;-73
2022/03/21 03:09:25;;;;;;;17.73;9.15;;;;;;;3.26;46.73;101742.69;5070722;28;20039;-70
2022/03/21 03:11:50;;;;;;;19.50;9.98;;;;;;;3.27;47.06;101742.69;5070724;28;20567;-70
2022/03/21 03:14:16;;;;;;;18.05;9.70;;;;;;;3.25;47.06;101735.78;5069862;28;20020;-74
2022/03/21 03:16:41;;;;;;;24.48;10.50;;;;;;;3.26;46.85;101737.50;5070376;28;20048;-72
2022/03/21 03:19:07;;;;;;;20.15;9.77;;;;;;;3.19;48.49;101743.66;5052773;28;20021;-73
2022/03/21 03:21:44;;;;;;;22.33;10.13;;;;;;;3.16;48.14;101739.38;5047908;28;20059;-72
2022/03/21 03:24:11;;;;;;;19.55;9.85;;;;;;;3.10;47.99;101742.88;5068319;28;20721;-72
2022/03/21 03:26:37;;;;;;;17.70;9.45;;;;;;;3.06;47.71;101745.53;5052470;28;20464;-72
2022/03/21 03:29:03;;;;;;;21.83;10.57;;;;;;;3.08;47.51;101746.41;5070287;28;20132;-72
2022/03/21 03:31:29;;;;;;;25.05;10.43;;;;;;;3.03;47.37;101748.16;5081302;22;20139;-71
2022/03/21 03:33:54;;;;;;;21.40;10.50;;;;;;;3.03;47.16;101743.84;5071540;28;20100;-72
2022/03/21 03:36:20;;;;;;;20.20;9.05;;;;;;;3.01;47.78;101745.59;5072247;28;20444;-71
2022/03/21 03:38:46;;;;;;;19.83;9.63;;;;;;;2.97;48.02;101748.25;5072600;28;20036;-70
2022/03/21 03:41:12;;;;;;;19.88;10.27;;;;;;;2.94;49.05;101743.13;5070955;28;20120;-68
2022/03/21 03:43:38;;;;;;;22.50;9.90;;;;;;;2.92;48.10;101743.97;5068070;28;20454;-70
2022/03/21 03:46:04;;;;;;;19.50;9.35;;;;;;;2.91;49.06;101739.66;5072375;28;20021;-70
2022/03/21 03:48:29;;;;;;;25.35;10.10;;;;;;;2.91;48.66;101738.81;5073610;28;20612;-68
2022/03/21 03:50:55;;;;;;;21.48;9.73;;;;;;;2.95;48.90;101743.09;5072082;28;20063;-69
2022/03/21 03:53:20;;;;;;;18.30;9.20;;;;;;;2.89;47.85;101733.66;5072817;28;20035;-66
2022/03/21 03:55:46;;;;;;;20.52;9.02;;;;;;;2.91;48.68;101729.31;5074151;28;20033;-70
2022/03/21 03:58:11;;;;;;;19.42;9.00;;;;;;;2.91;49.03;101728.44;5074389;28;20021;-68
2022/03/21 04:00:37;;;;;;;19.70;9.90;;;;;;;2.91;48.46;101738.81;5073706;28;20040;-71
2022/03/21 04:05:47;;;;;;;20.80;9.05;;;;;;;2.83;47.74;101745.81;5068294;28;20051;-69
2022/03/21 04:08:12;;;;;;;20.50;9.90;;;;;;;2.76;48.62;101741.59;5071759;28;20028;-67
2022/03/21 04:10:38;;;;;;;19.30;9.73;;;;;;;2.71;49.51;101740.75;5072253;28;20514;-69
2022/03/21 04:13:03;;;;;;;21.70;9.50;;;;;;;2.71;48.81;101739.06;5071362;28;20036;-70
2022/03/21 04:15:29;;;;;;;25.08;10.60;;;;;;;2.71;49.08;101741.66;5071440;28;20044;-70
2022/03/21 04:18:01;;;;;;;21.00;9.10;;;;;;;2.71;49.02;101738.16;5071175;28;20040;-71
2022/03/21 04:20:27;;;;;;;17.95;9.23;;;;;;;2.70;48.76;101744.22;5069924;28;20441;-72
2022/03/21 04:22:53;;;;;;;18.38;9.70;;;;;;;2.66;48.79;101746.84;5061799;28;20029;-67
2022/03/21 04:25:18;;;;;;;18.27;9.85;;;;;;;2.68;48.50;101739.09;5071133;28;20036;-70
2022/03/21 04:27:43;;;;;;;18.85;9.40;;;;;;;2.62;49.02;101746.91;5071282;28;20040;-70
2022/03/21 04:30:09;;;;;;;21.73;9.48;;;;;;;2.54;48.43;101751.31;5071140;28;20620;-71
2022/03/21 04:32:35;;;;;;;24.98;10.02;;;;;;;2.40;48.86;101751.44;5070340;28;20052;-69
2022/03/21 04:35:01;;;;;;;17.40;8.98;;;;;;;2.37;49.34;101751.47;5053539;28;20532;-68
2022/03/21 04:37:26;;;;;;;19.40;8.85;;;;;;;2.36;49.04;101749.75;5069827;28;20020;-70
2022/03/21 04:39:51;;;;;;;19.60;9.25;;;;;;;2.38;50.10;101750.63;5070267;28;20103;-70
2022/03/21 04:42:17;;;;;;;20.00;9.00;;;;;;;2.35;49.13;101758.41;5065874;28;20399;-69
2022/03/21 04:44:44;;;;;;;27.50;10.35;;;;;;;2.37;48.28;101749.75;5071827;28;20044;-69
2022/03/21 04:47:10;;;;;;;19.52;9.82;;;;;;;2.35;48.83;101751.50;5072909;28;20028;-70
2022/03/21 04:49:36;;;;;;;16.02;8.73;;;;;;;2.33;49.27;101760.97;5071790;28;20024;-69
2022/03/21 04:52:02;;;;;;;23.70;9.50;;;;;;;2.32;49.55;101759.28;5073614;28;20116;-71
2022/03/21 04:54:28;;;;;;;20.83;8.43;;;;;;;2.29;49.63;101768.81;5071465;28;20060;-70
2022/03/21 04:56:53;;;;;;;18.50;9.20;;;;;;;2.22;49.59;101770.56;5070784;28;20646;-70
2022/03/21 04:59:18;;;;;;;19.58;10.30;;;;;;;2.24;49.09;101781.78;5070842;28;20500;-69
2022/03/21 05:01:44;;;;;;;23.35;9.35;;;;;;;2.20;48.84;101785.28;5070691;28;20044;-71
2022/03/21 05:04:09;;;;;;;18.83;9.48;;;;;;;2.12;49.36;101777.56;5072159;28;20107;-71
2022/03/21 05:06:34;;;;;;;18.33;9.10;;;;;;;2.08;48.98;101778.47;5072159;28;20083;-72
2022/03/21 05:09:03;;;;;;;22.35;9.32;;;;;;;2.03;49.73;101779.38;5070852;28;20115;-70
2022/03/21 05:11:28;;;;;;;20.55;9.75;;;;;;;2.09;49.65;101787.94;5071454;28;20039;-72
2022/03/21 05:13:54;;;;;;;25.42;9.25;;;;;;;2.10;50.69;101773.28;5071125;28;20039;-67
2022/03/21 05:16:19;;;;;;;17.88;8.70;;;;;;;2.10;49.67;101778.44;5069476;28;20366;-69
2022/03/21 05:18:45;;;;;;;17.45;8.82;;;;;;;2.07;49.90;101776.72;5072573;28;20028;-71
2022/03/21 05:21:10;;;;;;;18.02;9.05;;;;;;;2.10;50.19;101768.94;5071208;28;20471;-70
2022/03/21 05:31:46;;;;;;;25.80;9.85;;;;;;;2.20;48.38;101781.84;5065247;28;20613;-70
2022/03/21 05:36:56;;;;;;;22.98;9.75;;;;;;;2.21;47.79;101784.38;5070959;28;20086;-70
2022/03/21 05:39:23;;;;;;;21.85;9.60;;;;;;;2.18;48.49;101794.75;5071816;28;20108;-71
2022/03/21 05:41:51;;;;;;;24.35;9.70;;;;;;;2.13;48.48;101781.03;5071103;28;20524;-69
2022/03/21 05:44:17;;;;;;;16.25;7.57;;;;;;;2.15;48.73;101789.59;5069420;28;20063;-70
2022/03/21 05:46:42;;;;;;;20.52;9.07;;;;;;;2.23;49.79;101784.41;5068913;28;20498;-71
2022/03/21 05:49:08;;;;;;;20.92;8.68;;;;;;;2.26;49.32;101792.13;5069841;28;20447;-69
2022/03/21 05:51:37;;;;;;;19.13;9.40;;;;;;;2.28;49.77;101788.66;5068873;28;20166;-66
2022/03/21 05:54:13;;;;;;;22.73;9.32;;;;;;;2.34;48.30;101793.78;5069471;28;20032;-70
2022/03/21 05:56:39;;;;;;;23.10;9.52;;;;;;;2.33;49.21;101792.03;5073935;28;20123;-74
2022/03/21 06:01:53;;;;;;;20.17;8.40;;;;;;;2.45;47.97;101798.88;5073082;28;20562;-72
2022/03/21 06:04:19;;;;;;;23.10;9.85;;;;;;;2.43;48.74;101803.19;5073389;28;20586;-70
2022/03/21 06:06:45;;;;;;;19.70;8.80;;;;;;;2.42;48.25;101801.47;5074496;28;20131;-73
2022/03/21 06:09:12;;;;;;;16.48;8.50;;;;;;;2.48;48.23;101804.00;5073557;28;20028;-73
2022/03/21 06:11:37;;;;;;;20.20;9.27;;;;;;;2.62;48.36;101806.47;5055709;28;21204;-70
2022/03/21 06:14:04;;;;;;;20.05;9.45;;;;;;;2.72;47.98;101810.69;5072705;28;20029;-72
2022/03/21 06:16:30;;;;;;;24.52;9.73;;;;;;;2.69;48.30;101813.31;5072231;28;20030;-71
2022/03/21 06:18:57;;;;;;;18.52;8.30;;;;;;;2.66;48.05;101813.31;5072147;28;20020;-72
2022/03/21 06:21:23;;;;;;;22.67;8.95;;;;;;;2.69;46.98;101815.91;5073968;28;20033;-70
2022/03/21 06:23:49;;;;;;;24.13;9.15;;;;;;;2.71;47.88;101810.69;5075797;28;20033;-69
2022/03/21 06:26:14;;;;;;;18.58;8.80;;;;;;;2.75;47.58;101820.19;5072193;28;20068;-70
2022/03/21 06:28:39;;;;;;;23.63;8.57;;;;;;;2.81;47.30;101820.94;5071998;28;20044;-70
2022/03/21 06:31:05;;;;;;;27.88;9.95;;;;;;;2.90;47.21;101820.88;5072588;28;20016;-69
2022/03/21 06:33:31;;;;;;;19.70;8.65;;;;;;;2.94;46.32;101819.09;5072821;28;20506;-72
2022/03/21 06:35:58;;;;;;;16.92;8.48;;;;;;;3.00;46.91;101825.94;5075577;28;20108;-70
2022/03/21 06:38:24;;;;;;;19.25;8.70;;;;;;;2.99;46.17;101824.22;5063714;28;20632;-72
2022/03/21 06:40:50;;;;;;;19.75;8.75;;;;;;;3.05;46.62;101821.59;5073249;28;20035;-70
2022/03/21 06:43:16;;;;;;;23.15;8.50;;;;;;;3.12;47.02;101828.41;5073216;28;20031;-68
2022/03/21 06:45:43;;;;;;;23.02;9.07;;;;;;;3.15;46.93;101825.75;5073423;28;20346;-68
2022/03/21 06:48:09;;;;;;;17.73;9.25;;;;;;;3.20;46.71;101824.00;5073342;28;20518;-72
2022/03/21 06:50:35;;;;;;;17.98;8.85;;;;;;;3.27;45.02;101835.16;5073769;28;20052;-72
2022/03/21 06:53:00;;;;;;;17.08;8.75;;;;;;;3.25;45.67;101826.53;5073343;28;20088;-68
2022/03/21 06:55:26;;;;;;;21.00;8.13;;;;;;;3.34;45.67;101827.28;5073203;28;20044;-70
2022/03/21 06:57:51;;;;;;;22.63;9.23;;;;;;;3.43;44.87;101834.09;5073951;28;20091;-69
2022/03/21 07:00:17;;;;;;;23.13;8.98;;;;;;;3.45;45.21;101840.13;5074554;28;20033;-72
2022/03/21 07:02:43;;;;;;;18.38;9.10;;;;;;;3.49;44.73;101834.03;5073015;28;20093;-71
2022/03/21 07:05:09;;;;;;;15.43;7.80;;;;;;;3.60;44.79;101839.06;5073657;28;20685;-72
2022/03/21 07:07:35;;;;;;;28.25;9.32;;;;;;;3.69;44.38;101843.28;5070883;28;20042;-70
2022/03/21 07:10:01;;;;;;;20.05;9.30;;;;;;;3.66;44.50;101841.56;5073338;28;20111;-70
2022/03/21 07:12:26;;;;;;;21.50;9.15;;;;;;;3.76;45.05;101843.16;5072519;28;20037;-71
2022/03/21 07:14:52;;;;;;;27.00;8.80;;;;;;;3.81;45.39;101840.50;5054710;28;20032;-71
2022/03/21 07:17:20;;;;;;;21.35;8.77;;;;;;;3.88;44.11;101842.13;5072433;28;20168;-73
2022/03/21 07:19:46;;;;;;;15.45;7.75;;;;;;;3.96;44.15;101844.63;5072311;28;20037;-71
2022/03/21 07:22:12;;;;;;;19.30;8.63;;;;;;;4.00;42.94;101844.53;5071467;28;20612;-72
2022/03/21 07:24:37;;;;;;;19.08;8.52;;;;;;;4.05;43.57;101849.69;5071222;28;20045;-69
2022/03/21 07:27:03;;;;;;;20.27;8.20;;;;;;;4.09;43.11;101848.75;5071774;28;20862;-72
2022/03/21 07:29:28;;;;;;;23.17;9.70;;;;;;;4.10;43.91;101855.66;5071293;28;20528;-70
2022/03/21 07:31:54;;;;;;;15.35;7.70;;;;;;;4.10;42.42;101856.50;5070628;28;20439;-70
2022/03/21 07:34:19;;;;;;;21.98;8.43;;;;;;;4.14;42.19;101852.13;5069708;28;20020;-69
2022/03/21 07:36:44;;;;;;;18.23;8.77;;;;;;;4.20;43.14;101854.66;5072187;28;20032;-68
2022/03/21 07:39:12;;;;;;;18.65;8.38;;;;;;;4.23;42.98;101849.41;5052399;28;20467;-68
2022/03/21 07:41:37;;;;;;;20.10;8.48;;;;;;;4.27;44.10;101861.47;5071075;28;20595;-71
2022/03/21 07:44:02;;;;;;;21.05;8.52;;;;;;;4.29;43.08;101853.63;5066849;28;20033;-71
2022/03/21 07:49:12;;;;;;;22.25;8.75;;;;;;;4.44;43.61;101857.72;5077203;28;20030;-70
2022/03/21 07:51:37;;;;;;;23.52;8.73;;;;;;;4.48;43.49;101854.19;5081320;28;20096;-71
2022/03/21 07:54:03;;;;;;;20.50;9.02;;;;;;;4.52;44.64;101855.84;5071226;28;20520;-71
2022/03/21 07:56:29;;;;;;;19.52;9.05;;;;;;;4.56;43.86;101850.63;5075931;28;20072;-72
2022/03/21 07:58:55;;;;;;;19.15;8.30;;;;;;;4.69;43.58;101863.38;5070094;28;20110;-70
2022/03/21 08:01:20;;;;;;;18.88;7.97;;;;;;;4.74;43.31;101866.75;5072157;28;20494;-72
2022/03/21 08:03:46;;;;;;;19.13;7.72;;;;;;;4.77;42.60;101862.34;5072722;28;20029;-73
2022/03/21 08:06:11;;;;;;;22.65;8.77;;;;;;;4.80;42.67;101859.72;5073212;28;20029;-71
2022/03/21 08:08:41;;;;;;;17.23;7.93;;;;;;;4.86;42.69;101853.56;5074509;28;20043;-75
2022/03/21 08:11:06;;;;;;;19.67;8.65;;;;;;;4.96;42.22;101856.84;5058229;28;20033;-72
2022/03/21 08:13:32;;;;;;;18.95;9.15;;;;;;;4.98;42.40;101855.06;5065287;28;20036;-70
2022/03/21 08:15:59;;;;;;;18.73;8.68;;;;;;;5.03;43.03;101859.28;5071374;28;20047;-71
2022/03/21 08:18:25;;;;;;;18.50;8.77;;;;;;;5.18;42.40;101857.28;5055924;28;20055;-72
2022/03/21 08:20:50;;;;;;;22.92;9.00;;;;;;;5.31;41.43;101861.38;5075832;28;20051;-69
2022/03/21 08:23:16;;;;;;;19.70;9.70;;;;;;;5.30;40.72;101865.72;5073962;28;20564;-69
2022/03/21 08:25:46;;;;;;;19.58;9.43;;;;;;;5.39;42.08;101874.22;5069835;28;20037;-69
2022/03/21 08:28:14;;;;;;;18.02;8.82;;;;;;;5.45;41.68;101879.28;5074390;28;20028;-70
2022/03/21 08:30:41;;;;;;;21.20;9.00;;;;;;;5.53;41.09;101873.06;5070372;28;20048;-70
2022/03/21 08:33:08;;;;;;;15.82;8.38;;;;;;;5.58;41.05;101870.38;5068733;28;20052;-70
2022/03/21 08:35:36;;;;;;;25.40;9.30;;;;;;;5.64;40.76;101867.66;5064581;28;20032;-70
2022/03/21 08:38:02;;;;;;;20.85;9.05;;;;;;;5.71;40.10;101873.56;5061997;28;20044;-72
2022/03/21 08:40:28;;;;;;;16.73;8.52;;;;;;;5.73;40.63;101864.84;5069284;28;20477;-70
2022/03/21 08:42:55;;;;;;;19.92;8.75;;;;;;;5.82;40.26;101868.97;5069188;28;20119;-71
2022/03/21 08:45:21;;;;;;;23.70;9.82;;;;;;;5.86;40.13;101867.16;5071120;28;20382;-70
2022/03/21 08:47:47;;;;;;;25.85;9.23;;;;;;;5.90;39.72;101874.91;5070351;28;20733;-72
2022/03/21 08:50:13;;;;;;;22.48;9.32;;;;;;;5.97;39.40;101868.69;5067688;28;20043;-74
2022/03/21 08:52:39;;;;;;;21.13;8.80;;;;;;;6.03;39.56;101865.94;5070297;28;20056;-71
2022/03/21 08:55:06;;;;;;;17.58;7.85;;;;;;;6.12;39.04;101866.59;5072048;28;20029;-70
2022/03/21 08:57:31;;;;;;;19.77;8.77;;;;;;;6.18;38.71;101866.47;5072494;28;20127;-70
2022/03/21 08:59:57;;;;;;;20.17;9.30;;;;;;;6.21;39.11;101866.41;5073799;28;20782;-71
2022/03/21 09:02:22;;;;;;;20.30;9.13;;;;;;;6.28;39.37;101862.78;5052849;28;20032;-71
2022/03/21 09:04:48;;;;;;;19.92;8.52;;;;;;;6.38;38.75;101864.28;5064112;28;20083;-71
2022/03/21 09:07:13;;;;;;;14.43;8.30;;;;;;;6.45;38.37;101857.13;5068797;28;20024;-72
2022/03/21 09:09:40;;;;;;;19.80;8.55;;;;;;;6.50;38.32;101858.75;5070372;28;20421;-73
2022/03/21 09:12:07;;;;;;;21.13;9.05;;;;;;;6.58;38.76;101850.75;5069416;28;20614;-71
2022/03/21 09:14:33;;;;;;;18.80;8.93;;;;;;;6.67;39.23;101850.50;5066124;28;20554;-74
2022/03/21 09:16:59;;;;;;;21.85;9.15;;;;;;;6.76;39.34;101860.69;5067330;28;20120;-72
2022/03/21 09:19:24;;;;;;;19.27;9.20;;;;;;;6.85;39.31;101850.94;5065972;28;20036;-71
2022/03/21 09:21:51;;;;;;;17.23;8.32;;;;;;;6.90;38.65;101854.28;5069243;28;20020;-71
2022/03/21 09:24:16;;;;;;;15.20;8.20;;;;;;;6.88;38.73;101841.28;5069072;28;20029;-70
2022/03/21 09:26:42;;;;;;;18.92;9.45;;;;;;;6.92;38.70;101844.66;5071397;28;20051;-70
2022/03/21 09:29:07;;;;;;;18.88;9.35;;;;;;;7.00;39.03;101838.31;5069197;28;20040;-72
2022/03/21 09:31:33;;;;;;;18.75;8.32;;;;;;;7.09;38.55;101836.38;5081465;28;20082;-75
2022/03/21 09:33:59;;;;;;;23.30;9.93;;;;;;;7.17;38.06;101847.47;5086600;22;20043;-76
2022/03/21 09:36:25;;;;;;;18.50;8.45;;;;;;;7.26;38.39;101845.44;5077043;28;20433;-78
2022/03/21 09:38:50;;;;;;;15.27;8.65;;;;;;;7.28;38.16;101848.88;5073427;28;20115;-76
2022/03/21 09:41:22;;;;;;;18.05;9.35;;;;;;;7.39;37.78;101851.19;5068799;28;20135;-78
2022/03/21 09:43:55;;;;;;;17.20;8.35;;;;;;;7.48;37.22;101852.66;5067208;28;20389;-74
2022/03/21 09:46:21;;;;;;;19.85;8.40;;;;;;;7.56;37.72;101852.44;5069368;28;20095;-76
2022/03/21 09:48:48;;;;;;;16.83;8.63;;;;;;;7.68;37.22;101850.34;5055141;28;20110;-78
2022/03/21 09:51:19;;;;;;;15.45;8.30;;;;;;;7.78;36.93;101848.28;5069380;28;20516;-73
2022/03/21 09:53:45;;;;;;;18.35;8.95;;;;;;;7.81;36.39;101842.97;5061722;28;20087;-72
2022/03/21 09:56:10;;;;;;;14.00;8.35;;;;;;;7.91;36.70;101846.16;5061243;28;20036;-74
2022/03/21 09:58:36;;;;;;;21.42;9.90;;;;;;;7.95;35.98;101840.81;5042983;28;20020;-76
2022/03/21 10:01:01;;;;;;;18.70;9.10;;;;;;;7.95;36.66;101839.94;5060974;28;20060;-74
2022/03/21 10:03:27;;;;;;;16.80;8.55;;;;;;;8.02;36.48;101840.63;5062074;28;20049;-78
2022/03/21 10:05:53;;;;;;;19.65;9.27;;;;;;;8.03;36.27;101839.72;5062866;28;20056;-77
2022/03/21 10:08:27;;;;;;;16.50;9.05;;;;;;;8.12;36.63;101835.06;5044205;28;20454;-76
2022/03/21 10:11:02;;;;;;;21.13;8.45;;;;;;;8.21;37.16;101839.97;5060597;28;20116;-77
2022/03/21 10:13:31;;;;;;;26.58;10.02;;;;;;;8.26;36.72;101834.59;5060782;28;20438;-75
2022/03/21 10:16:18;;;;;;;22.75;8.85;;;;;;;8.34;35.70;101837.81;5062545;28;20052;-75
2022/03/21 10:18:52;;;;;;;23.42;9.02;;;;;;;8.40;35.83;101832.41;5060538;28;20039;-74
2022/03/21 10:21:17;;;;;;;17.52;8.23;;;;;;;8.42;36.81;101835.84;5060430;28;20188;-76
2022/03/21 10:23:46;;;;;;;18.63;8.95;;;;;;;8.52;36.72;101830.31;5060566;28;20040;-75
2022/03/21 10:26:28;;;;;;;19.83;9.00;;;;;;;8.58;35.86;101832.72;5062271;28;20044;-78
2022/03/21 10:29:02;;;;;;;16.00;8.05;;;;;;;8.67;35.04;101830.63;5063904;28;20285;-76
2022/03/21 10:31:34;;;;;;;17.25;8.90;;;;;;;8.76;36.10;101826.03;5062743;28;21158;-76
2022/03/21 10:34:01;;;;;;;17.15;9.27;;;;;;;8.90;35.17;101827.25;5062894;28;20097;-77
2022/03/21 10:36:26;;;;;;;17.02;9.73;;;;;;;9.00;35.69;101829.53;5061944;28;20025;-74
2022/03/21 10:39:05;;;;;;;15.18;8.57;;;;;;;9.09;35.04;101837.91;5062415;28;20047;-79
2022/03/21 10:41:38;;;;;;;24.85;8.80;;;;;;;9.09;34.46;101827.44;5062076;28;20048;-78
2022/03/21 10:44:05;;;;;;;19.73;8.50;;;;;;;9.19;34.94;101826.19;5065191;28;20040;-76
2022/03/21 10:46:30;;;;;;;18.73;9.05;;;;;;;9.24;34.85;101825.19;5065717;28;20029;-79
2022/03/21 10:49:05;;;;;;;20.75;8.88;;;;;;;9.27;34.08;101822.44;5048063;28;20066;-76
2022/03/21 10:51:50;;;;;;;17.52;8.93;;;;;;;9.29;34.09;101823.25;5064542;28;20044;-78
2022/03/21 10:54:46;;;;;;;18.13;8.32;;;;;;;9.41;35.93;101812.31;5065818;28;20686;-76
2022/03/21 10:57:36;;;;;;;19.48;8.52;;;;;;;9.56;34.58;101816.97;5058523;28;20052;-77
2022/03/21 11:00:18;;;;;;;17.05;8.75;;;;;;;9.67;33.22;101816.56;5063830;28;20542;-76
2022/03/21 11:03:05;;;;;;;13.73;8.13;;;;;;;9.89;33.27;101827.06;5062720;28;20075;-73
2022/03/21 11:05:33;;;;;;;14.18;8.27;;;;;;;9.90;33.30;101826.13;5064764;28;20075;-78
2022/03/21 11:07:58;;;;;;;23.77;8.30;;;;;;;9.93;32.78;101829.47;5064266;28;20044;-76
2022/03/21 11:10:26;;;;;;;18.95;10.35;;;;;;;9.99;33.43;101815.31;5061654;28;20031;-73
2022/03/21 11:12:53;;;;;;;14.95;8.85;;;;;;;10.08;31.80;101807.06;5065066;28;20052;-77
2022/03/21 11:15:18;;;;;;;18.65;8.75;;;;;;;10.16;33.18;101810.25;5064335;28;20039;-75
2022/03/21 11:17:45;;;;;;;15.52;8.25;;;;;;;10.23;32.58;101813.44;5043651;28;20052;-74
2022/03/21 11:20:12;;;;;;;27.08;8.85;;;;;;;10.23;32.71;101796.88;5061613;28;20079;-74
2022/03/21 11:22:39;;;;;;;20.15;8.13;;;;;;;10.25;32.62;101797.66;5067054;28;20048;-78
2022/03/21 11:25:07;;;;;;;18.20;8.25;;;;;;;10.31;33.54;101794.84;5066447;28;20024;-74
2022/03/21 11:28:01;;;;;;;20.90;9.10;;;;;;;10.44;32.06;101797.78;5064759;28;20119;-77
2022/03/21 11:30:48;;;;;;;15.90;8.43;;;;;;;10.58;31.67;101791.03;5067342;28;20113;-74
2022/03/21 11:33:25;;;;;;;23.60;9.15;;;;;;;10.81;32.22;101797.06;5064118;28;20037;-78
2022/03/21 11:35:59;;;;;;;19.05;8.93;;;;;;;10.92;31.53;101789.56;5065244;28;20037;-75
2022/03/21 11:38:28;;;;;;;15.77;7.80;;;;;;;11.01;31.24;101785.66;5064703;28;20112;-75
2022/03/21 11:41:13;;;;;;;18.13;9.02;;;;;;;11.00;30.90;101778.72;5064008;28;20051;-73
2022/03/21 11:43:43;;;;;;;17.50;9.43;;;;;;;11.05;30.67;101782.84;5064885;28;20028;-76